2XS0 weather

Columbia Valley Regional Heliport
Brownsville, Texas, United States

Public forecast

Using degrees Fahrenheit for public forecast. Weather courtesy of forecast.io.

Closest aviation weather report (METAR) to Columbia Valley Regional Heliport

Closest report is Brownsville South Padre Island International Airport, 6.4 nm (11.9 km) SE. Retrieved 2019/10/22 17:53 UTC (13 minutes ago):

KBRO 221753Z 04015G23KT 10SM SCT044 SCT060 28/18 A3010 RMK AO2 SLP191 T02830178 10289 20256 50001

Closest aviation forecast (TAF) to Columbia Valley Regional Heliport

Closest forecast is Brownsville South Padre Island International Airport, 6.4 nm (11.9 km) SE. Retrieved 2019/10/22 18:24 UTC (0 seconds ago):

TAF KBRO 221722Z 2218/2318 04013G22KT P6SM OVC040 FM222100 06016G24KT P6SM SCT040 BKN250 FM230000 06010KT P6SM FEW040 SCT250 FM231700 10012KT P6SM FEW040 SCT200